createdAt,value
2018-01-07T00:02:22.681Z,10.00
2018-01-07T00:04:50.211Z,10.10
2018-01-07T00:07:17.834Z,10.20
2018-01-07T00:09:45.528Z,10.30
2018-01-07T00:12:13.059Z,10.40
2018-01-07T00:14:40.585Z,10.40
2018-01-07T00:17:08.087Z,10.40
2018-01-07T00:19:35.773Z,10.30
2018-01-07T00:22:03.364Z,10.30
2018-01-07T00:24:30.898Z,10.20
2018-01-07T00:26:58.371Z,10.10
2018-01-07T00:29:25.917Z,10.10
2018-01-07T00:31:53.432Z,10.00
2018-01-07T00:34:22.725Z,10.10
2018-01-07T00:36:52.280Z,10.00
2018-01-07T00:39:19.880Z,10.00
2018-01-07T00:41:48.062Z,10.00
2018-01-07T00:44:16.368Z,10.00
2018-01-07T00:46:43.977Z,10.00
2018-01-07T00:49:11.529Z,10.00
2018-01-07T00:51:39.345Z,10.00
2018-01-07T00:54:06.834Z,10.00
2018-01-07T00:56:34.431Z,10.00
2018-01-07T00:59:02.978Z,10.10
2018-01-07T01:01:30.494Z,10.10
2018-01-07T01:03:58.076Z,10.10
2018-01-07T01:06:25.655Z,10.20
2018-01-07T01:08:53.227Z,10.20
2018-01-07T01:11:20.708Z,10.20
2018-01-07T01:13:48.226Z,10.10
2018-01-07T01:16:15.781Z,10.00
2018-01-07T01:18:43.353Z,10.10
2018-01-07T01:21:10.895Z,10.10
2018-01-07T01:23:38.460Z,10.10
2018-01-07T01:26:06.025Z,10.10
2018-01-07T01:28:33.656Z,10.10
2018-01-07T01:31:01.204Z,10.10
2018-01-07T01:33:28.787Z,10.10
2018-01-07T01:35:56.355Z,10.20
2018-01-07T01:38:23.980Z,10.20
2018-01-07T01:40:51.560Z,10.30
2018-01-07T01:43:19.104Z,10.30
2018-01-07T01:45:46.695Z,10.20
2018-01-07T01:48:14.277Z,10.30
2018-01-07T01:50:41.852Z,10.20
2018-01-07T01:53:09.442Z,10.20
2018-01-07T01:55:38.080Z,10.20
2018-01-07T01:58:05.750Z,10.10
2018-01-07T02:00:33.321Z,10.20
2018-01-07T02:03:00.924Z,10.10
2018-01-07T02:05:29.199Z,10.00
2018-01-07T02:07:56.788Z,10.00
2018-01-07T02:10:24.380Z,10.00
2018-01-07T02:12:52.116Z,9.90
2018-01-07T02:15:19.705Z,9.90
2018-01-07T02:17:47.252Z,10.00
2018-01-07T02:20:14.841Z,10.00
2018-01-07T02:22:42.420Z,10.00
2018-01-07T02:25:09.980Z,10.00
2018-01-07T02:27:37.549Z,10.10
2018-01-07T02:30:05.119Z,10.00
2018-01-07T02:32:32.790Z,10.10
2018-01-07T02:35:00.306Z,10.00
2018-01-07T02:37:28.601Z,9.90
2018-01-07T02:39:56.913Z,10.00
2018-01-07T02:42:24.437Z,10.00
2018-01-07T02:44:51.998Z,10.10
2018-01-07T02:47:19.533Z,10.10
2018-01-07T02:49:47.242Z,10.10
2018-01-07T02:52:14.916Z,10.10
2018-01-07T02:54:42.564Z,10.00
2018-01-07T02:57:10.131Z,10.00
2018-01-07T02:59:37.697Z,10.10
2018-01-07T03:02:05.346Z,10.10
2018-01-07T03:04:32.882Z,10.10
2018-01-07T03:07:01.171Z,10.00
2018-01-07T03:09:28.681Z,10.00
2018-01-07T03:11:56.257Z,10.00
2018-01-07T03:14:24.683Z,10.00
2018-01-07T03:16:52.252Z,10.00
2018-01-07T03:19:19.790Z,10.00
2018-01-07T03:21:47.298Z,10.00
2018-01-07T03:24:14.760Z,10.00
2018-01-07T03:26:42.379Z,10.00
2018-01-07T03:29:09.935Z,10.00
2018-01-07T03:31:37.508Z,10.10
2018-01-07T03:34:05.049Z,10.00
2018-01-07T03:36:32.587Z,10.10
2018-01-07T03:39:00.107Z,10.10
2018-01-07T03:41:27.628Z,10.10
2018-01-07T03:43:55.198Z,10.00
2018-01-07T03:46:22.746Z,10.00
2018-01-07T03:48:50.253Z,10.10
2018-01-07T03:51:17.807Z,10.00
2018-01-07T03:53:45.280Z,10.00
2018-01-07T03:56:12.997Z,10.00
2018-01-07T03:58:40.496Z,10.00
2018-01-07T04:01:08.042Z,10.00
2018-01-07T04:03:35.571Z,10.00
2018-01-07T04:06:03.098Z,10.00
2018-01-07T04:08:30.549Z,10.00
2018-01-07T04:10:58.062Z,10.00
2018-01-07T04:13:25.613Z,10.00
2018-01-07T04:15:53.202Z,10.10
2018-01-07T04:18:20.695Z,10.10
2018-01-07T04:20:48.965Z,10.10
2018-01-07T04:23:17.267Z,10.10
2018-01-07T04:25:44.792Z,10.00
2018-01-07T04:28:12.354Z,10.10
2018-01-07T04:30:40.728Z,10.10
2018-01-07T04:33:08.244Z,10.10
2018-01-07T04:35:35.762Z,10.10
2018-01-07T04:38:04.105Z,10.20
2018-01-07T04:40:31.683Z,10.10
2018-01-07T04:43:00.049Z,10.20
2018-01-07T04:45:27.593Z,10.10
2018-01-07T04:47:55.109Z,10.10
2018-01-07T04:50:22.672Z,10.10
2018-01-07T04:52:50.226Z,10.00
2018-01-07T04:55:17.772Z,10.00
2018-01-07T04:57:45.282Z,10.00
2018-01-07T05:00:12.744Z,10.10
2018-01-07T05:02:40.370Z,10.00
2018-01-07T05:05:07.942Z,10.00
2018-01-07T05:07:35.512Z,10.10
2018-01-07T05:10:03.173Z,9.90
2018-01-07T05:12:30.742Z,9.90
2018-01-07T05:14:58.270Z,9.90
2018-01-07T05:17:26.036Z,9.90
2018-01-07T05:19:53.623Z,10.00
2018-01-07T05:22:21.221Z,10.00
2018-01-07T05:24:48.736Z,10.00
2018-01-07T05:27:16.260Z,9.90
2018-01-07T05:29:44.575Z,9.90
2018-01-07T05:32:12.392Z,9.90
2018-01-07T05:34:39.924Z,9.90
2018-01-07T05:37:07.512Z,9.90
2018-01-07T05:39:35.743Z,10.00
2018-01-07T05:42:03.306Z,10.00
2018-01-07T05:44:30.878Z,10.00
2018-01-07T05:46:58.388Z,10.00
2018-01-07T05:49:27.035Z,10.10
2018-01-07T05:51:54.640Z,10.10
2018-01-07T05:54:22.314Z,10.10
2018-01-07T05:56:49.981Z,10.10
2018-01-07T05:59:17.547Z,10.00
2018-01-07T06:01:45.112Z,9.90
2018-01-07T06:04:12.632Z,9.90
2018-01-07T06:06:40.082Z,9.80
2018-01-07T06:09:08.373Z,9.80
2018-01-07T06:11:35.891Z,9.80
2018-01-07T06:14:05.021Z,10.00
2018-01-07T06:16:32.678Z,10.00
2018-01-07T06:19:00.185Z,10.10
2018-01-07T06:21:27.766Z,10.20
2018-01-07T06:23:55.562Z,10.20
2018-01-07T06:26:23.848Z,10.30
2018-01-07T06:28:51.569Z,10.30
2018-01-07T06:31:19.144Z,10.30
2018-01-07T06:33:47.481Z,10.10
2018-01-07T06:36:15.028Z,10.10
2018-01-07T06:38:42.584Z,10.10
2018-01-07T06:41:10.096Z,10.00
2018-01-07T06:43:38.435Z,10.10
2018-01-07T06:46:05.988Z,10.10
2018-01-07T06:48:33.483Z,10.10
2018-01-07T06:51:01.051Z,10.10
2018-01-07T06:53:29.349Z,10.10
2018-01-07T06:55:57.653Z,10.00
2018-01-07T06:58:25.215Z,10.00
2018-01-07T07:00:52.833Z,10.10
2018-01-07T07:03:20.332Z,10.10
2018-01-07T07:05:47.938Z,10.10
2018-01-07T07:08:15.439Z,10.10
2018-01-07T07:10:42.954Z,10.20
2018-01-07T07:13:11.250Z,10.20
2018-01-07T07:15:39.488Z,10.10
2018-01-07T07:18:07.042Z,10.10
2018-01-07T07:20:34.626Z,10.10
2018-01-07T07:23:03.064Z,10.00
2018-01-07T07:25:30.587Z,10.00
2018-01-07T07:27:58.922Z,10.10
2018-01-07T07:30:26.373Z,10.00
2018-01-07T07:32:54.038Z,10.10
2018-01-07T07:35:21.639Z,10.10
2018-01-07T07:37:49.965Z,10.10
2018-01-07T07:40:17.541Z,10.10
2018-01-07T07:42:45.073Z,10.20
2018-01-07T07:45:12.602Z,10.20
2018-01-07T07:47:40.132Z,10.20
2018-01-07T07:50:07.716Z,10.20
2018-01-07T07:52:35.266Z,10.20
2018-01-07T07:55:03.589Z,10.20
2018-01-07T07:57:31.135Z,10.20
2018-01-07T07:59:58.662Z,10.10
2018-01-07T08:02:26.566Z,10.20
2018-01-07T08:04:54.042Z,10.20
2018-01-07T08:07:21.635Z,10.20
2018-01-07T08:09:49.233Z,10.20
2018-01-07T08:12:16.812Z,10.20
2018-01-07T08:14:44.387Z,10.30
2018-01-07T08:17:11.923Z,10.30
2018-01-07T08:19:39.536Z,10.30
2018-01-07T08:22:07.081Z,10.30
2018-01-07T08:24:34.604Z,10.30
2018-01-07T08:27:02.130Z,10.20
2018-01-07T08:29:30.452Z,10.20
2018-01-07T08:31:58.514Z,10.20
2018-01-07T08:34:26.017Z,10.10
2018-01-07T08:36:53.559Z,10.20
2018-01-07T08:39:21.138Z,10.10
2018-01-07T08:41:48.698Z,10.10
2018-01-07T08:44:17.007Z,10.00
2018-01-07T08:46:45.297Z,10.10
2018-01-07T08:49:12.776Z,10.00
2018-01-07T08:51:40.446Z,10.10
2018-01-07T08:54:07.895Z,10.00
2018-01-07T08:56:35.491Z,10.10
2018-01-07T08:59:03.935Z,10.10
2018-01-07T09:01:31.524Z,10.10
2018-01-07T09:03:59.068Z,10.10
2018-01-07T09:06:26.871Z,10.20
2018-01-07T09:08:54.945Z,10.20
2018-01-07T09:11:22.600Z,10.20
2018-01-07T09:13:50.150Z,10.20
2018-01-07T09:16:18.463Z,10.10
2018-01-07T09:18:45.992Z,10.10
2018-01-07T09:21:13.602Z,10.00
2018-01-07T09:23:41.348Z,10.00
2018-01-07T09:26:09.042Z,10.00
2018-01-07T09:28:36.743Z,10.10
2018-01-07T09:31:05.182Z,10.00
2018-01-07T09:33:32.738Z,10.00
2018-01-07T09:36:00.310Z,10.10
2018-01-07T09:38:27.872Z,10.10
2018-01-07T09:40:55.463Z,10.10
2018-01-07T09:43:23.849Z,10.10
2018-01-07T09:45:51.420Z,10.10
2018-01-07T09:48:19.748Z,10.10
2018-01-07T09:50:47.369Z,10.10
2018-01-07T09:53:15.784Z,10.10
2018-01-07T09:55:43.399Z,10.20
2018-01-07T09:58:11.028Z,10.10
2018-01-07T10:00:38.591Z,10.20
2018-01-07T10:03:06.229Z,10.20
2018-01-07T10:05:34.571Z,10.30
2018-01-07T10:08:02.853Z,10.30
2018-01-07T10:10:30.405Z,10.30
2018-01-07T10:12:58.039Z,10.30
2018-01-07T10:15:25.656Z,10.30
2018-01-07T10:17:53.174Z,10.40
2018-01-07T10:20:21.231Z,10.40
2018-01-07T10:22:51.086Z,10.30
2018-01-07T10:25:18.612Z,10.30
2018-01-07T10:27:46.145Z,10.30
2018-01-07T10:30:13.789Z,10.40
2018-01-07T10:32:41.352Z,10.50
2018-01-07T10:35:08.905Z,10.50
2018-01-07T10:37:36.499Z,10.60
2018-01-07T10:40:04.034Z,10.60
2018-01-07T10:42:31.600Z,10.70
2018-01-07T10:44:59.241Z,10.50
2018-01-07T10:47:26.768Z,10.50
2018-01-07T10:49:54.395Z,10.40
2018-01-07T10:52:21.868Z,10.40
2018-01-07T10:54:49.315Z,10.40
2018-01-07T10:57:16.820Z,10.40
2018-01-07T10:59:45.168Z,10.40
2018-01-07T11:02:19.591Z,10.40
2018-01-07T11:04:47.240Z,10.40
2018-01-07T11:07:14.805Z,10.50
2018-01-07T11:09:43.122Z,10.60
2018-01-07T11:12:11.070Z,10.60
2018-01-07T11:14:39.436Z,10.50
2018-01-07T11:17:07.771Z,10.40
2018-01-07T11:19:35.386Z,10.40
2018-01-07T11:22:03.071Z,10.50
2018-01-07T11:24:30.662Z,10.50
2018-01-07T11:26:58.234Z,10.50
2018-01-07T11:29:26.035Z,10.40
2018-01-07T11:31:53.567Z,10.40
2018-01-07T11:34:21.094Z,10.40
2018-01-07T11:36:48.637Z,10.40
2018-01-07T11:39:16.219Z,10.50
2018-01-07T11:41:43.756Z,10.50
2018-01-07T11:44:11.293Z,10.60
2018-01-07T11:46:38.982Z,10.70
2018-01-07T11:49:06.563Z,10.70
2018-01-07T11:51:34.095Z,10.60
2018-01-07T11:54:01.683Z,10.50
2018-01-07T11:56:29.212Z,10.40
2018-01-07T11:58:56.725Z,10.40
2018-01-07T12:01:24.283Z,10.40
2018-01-07T12:03:51.814Z,10.40
2018-01-07T12:06:19.281Z,10.50
2018-01-07T12:08:46.802Z,10.40
2018-01-07T12:11:14.255Z,10.50
2018-01-07T12:13:41.947Z,10.60
2018-01-07T12:16:09.417Z,10.60
2018-01-07T12:18:36.972Z,10.70
2018-01-07T12:21:04.518Z,10.70
2018-01-07T12:23:32.234Z,10.80
2018-01-07T12:26:00.506Z,10.70
2018-01-07T12:28:28.789Z,10.70
2018-01-07T12:30:57.103Z,10.70
2018-01-07T12:33:24.670Z,10.70
2018-01-07T12:35:52.219Z,10.80
2018-01-07T12:38:19.796Z,10.80
2018-01-07T12:40:47.387Z,10.70
2018-01-07T12:43:14.946Z,10.70
2018-01-07T12:45:42.515Z,10.80
2018-01-07T12:48:10.089Z,10.70
2018-01-07T12:50:38.432Z,10.70
2018-01-07T12:53:06.036Z,10.70
2018-01-07T12:55:34.359Z,10.70
2018-01-07T12:58:01.870Z,10.60
2018-01-07T13:00:30.082Z,10.60
2018-01-07T13:02:57.641Z,10.70
2018-01-07T13:05:25.267Z,10.70
2018-01-07T13:07:52.987Z,10.70
2018-01-07T13:10:21.447Z,10.60
2018-01-07T13:12:48.934Z,10.60
2018-01-07T13:15:16.512Z,10.60
2018-01-07T13:17:44.081Z,10.70
2018-01-07T13:20:12.520Z,10.80
2018-01-07T13:22:40.088Z,10.80
2018-01-07T13:25:07.616Z,10.90
2018-01-07T13:27:35.207Z,10.70
2018-01-07T13:30:02.765Z,10.70
2018-01-07T13:32:30.237Z,10.80
2018-01-07T13:34:57.788Z,11.00
2018-01-07T13:37:25.399Z,11.00
2018-01-07T13:39:52.907Z,11.00
2018-01-07T13:42:20.474Z,11.00
2018-01-07T13:44:48.043Z,11.00
2018-01-07T13:47:17.121Z,11.10
2018-01-07T13:49:44.646Z,11.10
2018-01-07T13:52:12.166Z,11.10
2018-01-07T13:54:40.445Z,11.20
2018-01-07T13:57:07.978Z,11.20
2018-01-07T13:59:35.509Z,11.10
2018-01-07T14:02:03.135Z,11.20
2018-01-07T14:04:30.671Z,11.20
2018-01-07T14:06:58.175Z,11.20
2018-01-07T14:09:25.716Z,11.10
2018-01-07T14:11:53.311Z,11.00
2018-01-07T14:14:20.803Z,11.10
2018-01-07T14:16:48.378Z,11.00
2018-01-07T14:19:16.643Z,11.00
2018-01-07T14:21:45.232Z,11.00
2018-01-07T14:24:12.818Z,11.00
2018-01-07T14:26:41.478Z,11.00
2018-01-07T14:29:09.984Z,11.00
2018-01-07T14:31:37.515Z,11.00
2018-01-07T14:34:05.061Z,11.00
2018-01-07T14:36:32.667Z,11.00
2018-01-07T14:39:00.164Z,11.00
2018-01-07T14:41:27.677Z,11.00
2018-01-07T14:43:55.993Z,11.00
2018-01-07T14:46:23.591Z,11.00
2018-01-07T14:48:51.113Z,11.00
2018-01-07T14:51:18.576Z,11.00
2018-01-07T14:53:46.134Z,10.90
2018-01-07T14:56:13.686Z,10.90
2018-01-07T14:58:41.927Z,10.90
2018-01-07T15:01:10.339Z,10.90
2018-01-07T15:03:37.897Z,10.90
2018-01-07T15:06:05.450Z,11.00
2018-01-07T15:08:33.111Z,11.00
2018-01-07T15:11:00.671Z,11.00
2018-01-07T15:13:28.221Z,11.00
2018-01-07T15:15:55.853Z,11.00
2018-01-07T15:18:23.460Z,10.80
2018-01-07T15:20:50.982Z,10.80
2018-01-07T15:23:18.547Z,10.90
2018-01-07T15:25:46.879Z,11.00
2018-01-07T15:28:14.620Z,11.00
2018-01-07T15:30:42.203Z,10.90
2018-01-07T15:33:10.639Z,10.80
2018-01-07T15:35:38.196Z,10.70
2018-01-07T15:38:05.722Z,10.80
2018-01-07T15:40:33.303Z,10.80
2018-01-07T15:43:00.883Z,10.80
2018-01-07T15:45:28.482Z,10.70
2018-01-07T15:47:55.994Z,10.70
2018-01-07T15:50:23.533Z,10.70
2018-01-07T15:52:51.096Z,10.70
2018-01-07T15:55:19.566Z,10.70
2018-01-07T15:57:47.092Z,10.70
2018-01-07T16:00:14.625Z,10.70
2018-01-07T16:02:42.183Z,10.70
2018-01-07T16:05:09.754Z,10.70
2018-01-07T16:07:37.321Z,10.70
2018-01-07T16:10:05.080Z,10.70
2018-01-07T16:12:32.667Z,10.70
2018-01-07T16:15:00.224Z,10.80
2018-01-07T16:17:27.877Z,10.80
2018-01-07T16:19:55.437Z,10.70
2018-01-07T16:22:22.988Z,10.70
2018-01-07T16:24:50.649Z,10.80
2018-01-07T16:27:18.176Z,10.90
2018-01-07T16:29:46.465Z,10.90
2018-01-07T16:32:14.001Z,10.90
2018-01-07T16:34:41.551Z,10.90
2018-01-07T16:37:09.896Z,10.90
2018-01-07T16:39:37.451Z,10.90
2018-01-07T16:42:05.020Z,10.80
2018-01-07T16:44:32.635Z,10.90
2018-01-07T16:47:00.322Z,10.90
2018-01-07T16:49:27.859Z,10.90
2018-01-07T16:51:55.444Z,10.90
2018-01-07T16:54:23.201Z,10.90
2018-01-07T16:56:50.751Z,10.80
2018-01-07T16:59:18.355Z,10.80
2018-01-07T17:01:45.879Z,10.90
2018-01-07T17:04:13.414Z,10.90
2018-01-07T17:06:40.934Z,10.90
2018-01-07T17:09:08.462Z,10.80
2018-01-07T17:11:35.926Z,10.80
2018-01-07T17:14:03.683Z,10.80
2018-01-07T17:16:31.185Z,10.80
2018-01-07T17:18:58.760Z,10.80
2018-01-07T17:21:26.277Z,10.80
2018-01-07T17:23:53.965Z,10.90
2018-01-07T17:26:22.297Z,10.90
2018-01-07T17:28:49.795Z,10.80
2018-01-07T17:31:17.251Z,10.80
2018-01-07T17:33:46.294Z,10.70
2018-01-07T17:36:13.848Z,10.70
2018-01-07T17:38:41.335Z,10.80
2018-01-07T17:41:08.880Z,10.80
2018-01-07T17:43:36.445Z,10.80
2018-01-07T17:46:03.959Z,10.90
2018-01-07T17:48:32.250Z,10.90
2018-01-07T17:51:00.599Z,10.90
2018-01-07T17:53:28.179Z,10.90
2018-01-07T17:55:56.498Z,10.80
2018-01-07T17:58:24.056Z,10.70
2018-01-07T18:00:51.567Z,10.80
2018-01-07T18:03:19.896Z,10.90
2018-01-07T18:05:47.454Z,10.90
2018-01-07T18:08:15.021Z,10.80
2018-01-07T18:10:42.574Z,10.80
2018-01-07T18:13:10.115Z,10.80
2018-01-07T18:15:37.600Z,10.80
2018-01-07T18:18:05.189Z,10.80
2018-01-07T18:20:32.741Z,10.80
2018-01-07T18:23:00.290Z,10.80
2018-01-07T18:25:27.755Z,10.80
2018-01-07T18:27:55.354Z,10.80
2018-01-07T18:30:22.928Z,10.90
2018-01-07T18:32:50.449Z,10.90
2018-01-07T18:35:17.931Z,11.00
2018-01-07T18:37:45.379Z,10.90
2018-01-07T18:40:12.977Z,10.90
2018-01-07T18:42:40.531Z,10.90
2018-01-07T18:45:08.057Z,10.90
2018-01-07T18:47:36.473Z,10.90
2018-01-07T18:50:04.026Z,10.90
2018-01-07T18:52:31.584Z,10.90
2018-01-07T18:54:59.051Z,10.90
2018-01-07T18:57:26.724Z,10.80
2018-01-07T18:59:54.278Z,10.70
2018-01-07T19:02:21.839Z,10.80
2018-01-07T19:04:49.425Z,10.80
2018-01-07T19:07:17.010Z,10.70
2018-01-07T19:09:46.186Z,10.80
2018-01-07T19:12:13.777Z,10.70
2018-01-07T19:14:41.349Z,10.80
2018-01-07T19:17:08.885Z,10.70
2018-01-07T19:19:37.324Z,10.60
2018-01-07T19:22:04.775Z,10.50
2018-01-07T19:24:32.366Z,10.50
2018-01-07T19:29:35.288Z,10.50
2018-01-07T19:32:02.959Z,10.50
2018-01-07T19:34:30.549Z,10.50
2018-01-07T19:36:58.124Z,10.60
2018-01-07T19:39:25.670Z,10.50
2018-01-07T19:41:53.291Z,10.40
2018-01-07T19:44:20.831Z,10.40
2018-01-07T19:46:48.495Z,10.40
2018-01-07T19:49:16.071Z,10.40
2018-01-07T19:51:44.392Z,10.50
2018-01-07T19:54:11.946Z,10.40
2018-01-07T19:56:39.467Z,10.40
2018-01-07T19:59:07.774Z,10.40
2018-01-07T20:01:35.372Z,10.40
2018-01-07T20:04:02.972Z,10.50
2018-01-07T20:06:30.491Z,10.50
2018-01-07T20:08:58.125Z,10.50
2018-01-07T20:11:25.634Z,10.50
2018-01-07T20:13:53.194Z,10.60
2018-01-07T20:16:20.647Z,10.60
2018-01-07T20:18:49.696Z,10.40
2018-01-07T20:21:17.271Z,10.40
2018-01-07T20:23:45.746Z,10.40
2018-01-07T20:26:13.259Z,10.30
2018-01-07T20:28:41.503Z,10.40
2018-01-07T20:31:09.071Z,10.40
2018-01-07T20:33:36.903Z,10.40
2018-01-07T20:36:04.468Z,10.50
2018-01-07T20:38:32.049Z,10.60
2018-01-07T20:40:59.600Z,10.50
2018-01-07T20:43:27.117Z,10.50
2018-01-07T20:45:55.436Z,10.50
2018-01-07T20:48:22.982Z,10.40
2018-01-07T20:50:50.551Z,10.50
2018-01-07T20:53:18.126Z,10.50
2018-01-07T20:55:45.684Z,10.50
2018-01-07T20:58:13.234Z,10.40
2018-01-07T21:00:40.761Z,10.40
2018-01-07T21:03:08.300Z,10.40
2018-01-07T21:05:35.982Z,10.30
2018-01-07T21:08:03.529Z,10.30
2018-01-07T21:10:31.834Z,10.40
2018-01-07T21:12:59.366Z,10.40
2018-01-07T21:15:26.917Z,10.30
2018-01-07T21:17:55.246Z,10.30
2018-01-07T21:20:22.828Z,10.30
2018-01-07T21:22:50.662Z,10.20
2018-01-07T21:25:18.215Z,10.10
2018-01-07T21:30:19.685Z,10.20
2018-01-07T21:32:47.189Z,10.20
2018-01-07T21:35:14.724Z,10.20
2018-01-07T21:37:42.280Z,10.10
2018-01-07T21:40:09.851Z,10.10
2018-01-07T21:42:37.494Z,10.10
2018-01-07T21:45:05.088Z,10.10
2018-01-07T21:47:34.115Z,9.90
2018-01-07T21:50:02.558Z,9.90
2018-01-07T21:52:30.394Z,9.90
2018-01-07T21:54:57.955Z,9.90
2018-01-07T21:57:26.200Z,9.90
2018-01-07T22:00:05.779Z,9.90
2018-01-07T22:02:45.406Z,9.80
2018-01-07T22:05:16.161Z,9.80
2018-01-07T22:07:43.707Z,9.80
2018-01-07T22:10:11.367Z,9.80
2018-01-07T22:12:38.917Z,9.90
2018-01-07T22:15:06.478Z,9.80
2018-01-07T22:17:34.032Z,9.80
2018-01-07T22:20:01.587Z,9.80
2018-01-07T22:22:29.123Z,9.80
2018-01-07T22:24:56.646Z,9.90
2018-01-07T22:27:24.137Z,9.90
2018-01-07T22:29:51.694Z,9.90
2018-01-07T22:32:19.263Z,9.80
2018-01-07T22:34:47.636Z,9.80
2018-01-07T22:37:15.181Z,9.80
2018-01-07T22:39:42.753Z,9.70
2018-01-07T22:42:10.308Z,9.70
2018-01-07T22:44:38.767Z,9.70
2018-01-07T22:47:06.417Z,9.60
2018-01-07T22:49:33.986Z,9.70
2018-01-07T22:52:01.569Z,9.70
2018-01-07T22:54:29.226Z,9.60
2018-01-07T22:56:56.791Z,9.60
2018-01-07T22:59:24.354Z,9.60
2018-01-07T23:01:52.615Z,9.60
2018-01-07T23:04:20.181Z,9.60
2018-01-07T23:06:47.770Z,9.60
2018-01-07T23:09:16.101Z,9.70
2018-01-07T23:11:43.666Z,9.70
2018-01-07T23:14:11.196Z,9.70
2018-01-07T23:16:38.767Z,9.70
2018-01-07T23:19:06.326Z,9.70
2018-01-07T23:21:33.949Z,9.60
2018-01-07T23:24:01.466Z,9.60
2018-01-07T23:26:29.053Z,9.60
2018-01-07T23:28:57.396Z,9.60
2018-01-07T23:31:24.876Z,9.60
2018-01-07T23:33:52.384Z,9.60
2018-01-07T23:36:19.985Z,9.60
2018-01-07T23:38:48.975Z,9.60
2018-01-07T23:41:16.534Z,9.60
2018-01-07T23:43:44.029Z,9.50
2018-01-07T23:46:11.577Z,9.50
2018-01-07T23:48:39.892Z,9.50
2018-01-07T23:51:07.452Z,9.50
2018-01-07T23:53:34.938Z,9.60
2018-01-07T23:56:02.467Z,9.60
2018-01-07T23:58:30.002Z,9.60
